sensor_id;sensor_type;location;lat;lon;timestamp;P1;durP1;ratioP1;P2;durP2;ratioP2
18853;SDS011;9556;49.374;19.446;2023-03-14T00:00:58;2.90;;;1.40;;
18853;SDS011;9556;49.374;19.446;2023-03-14T00:03:25;4.13;;;1.97;;
18853;SDS011;9556;49.374;19.446;2023-03-14T00:05:54;2.97;;;1.93;;
18853;SDS011;9556;49.374;19.446;2023-03-14T00:08:21;2.07;;;1.57;;
18853;SDS011;9556;49.374;19.446;2023-03-14T00:10:49;2.60;;;1.80;;
18853;SDS011;9556;49.374;19.446;2023-03-14T00:13:16;2.83;;;1.80;;
18853;SDS011;9556;49.374;19.446;2023-03-14T00:15:45;2.10;;;1.60;;
18853;SDS011;9556;49.374;19.446;2023-03-14T00:18:12;2.93;;;1.70;;
18853;SDS011;9556;49.374;19.446;2023-03-14T00:20:39;2.20;;;1.60;;
18853;SDS011;9556;49.374;19.446;2023-03-14T00:23:06;3.10;;;1.70;;
18853;SDS011;9556;49.374;19.446;2023-03-14T00:25:34;2.90;;;1.63;;
18853;SDS011;9556;49.374;19.446;2023-03-14T00:28:01;3.30;;;1.77;;
18853;SDS011;9556;49.374;19.446;2023-03-14T00:30:28;1.90;;;1.53;;
18853;SDS011;9556;49.374;19.446;2023-03-14T00:32:57;2.40;;;1.70;;
18853;SDS011;9556;49.374;19.446;2023-03-14T00:35:24;2.33;;;1.57;;
18853;SDS011;9556;49.374;19.446;2023-03-14T00:37:51;1.80;;;1.57;;
18853;SDS011;9556;49.374;19.446;2023-03-14T00:40:18;2.70;;;1.70;;
18853;SDS011;9556;49.374;19.446;2023-03-14T00:42:45;1.43;;;1.27;;
18853;SDS011;9556;49.374;19.446;2023-03-14T00:45:12;4.17;;;1.60;;
18853;SDS011;9556;49.374;19.446;2023-03-14T00:47:40;2.20;;;1.40;;
18853;SDS011;9556;49.374;19.446;2023-03-14T00:50:12;2.57;;;1.73;;
18853;SDS011;9556;49.374;19.446;2023-03-14T00:52:39;4.43;;;1.70;;
18853;SDS011;9556;49.374;19.446;2023-03-14T00:55:06;2.30;;;1.58;;
18853;SDS011;9556;49.374;19.446;2023-03-14T00:57:33;2.60;;;1.60;;
18853;SDS011;9556;49.374;19.446;2023-03-14T01:00:01;2.33;;;1.48;;
18853;SDS011;9556;49.374;19.446;2023-03-14T01:02:31;1.70;;;1.38;;
18853;SDS011;9556;49.374;19.446;2023-03-14T01:04:58;2.43;;;1.50;;
18853;SDS011;9556;49.374;19.446;2023-03-14T01:07:26;1.87;;;1.33;;
18853;SDS011;9556;49.374;19.446;2023-03-14T01:09:53;2.72;;;1.60;;
18853;SDS011;9556;49.374;19.446;2023-03-14T01:12:20;1.80;;;1.40;;
18853;SDS011;9556;49.374;19.446;2023-03-14T01:14:48;2.27;;;1.60;;
18853;SDS011;9556;49.374;19.446;2023-03-14T01:17:15;2.80;;;1.50;;
18853;SDS011;9556;49.374;19.446;2023-03-14T01:19:42;2.27;;;1.50;;
18853;SDS011;9556;49.374;19.446;2023-03-14T01:22:09;2.50;;;1.37;;
18853;SDS011;9556;49.374;19.446;2023-03-14T01:24:37;2.00;;;1.40;;
18853;SDS011;9556;49.374;19.446;2023-03-14T01:27:05;2.73;;;1.33;;
18853;SDS011;9556;49.374;19.446;2023-03-14T01:29:32;2.00;;;1.50;;
18853;SDS011;9556;49.374;19.446;2023-03-14T01:31:59;2.00;;;1.50;;
18853;SDS011;9556;49.374;19.446;2023-03-14T01:34:26;1.93;;;1.60;;
18853;SDS011;9556;49.374;19.446;2023-03-14T01:36:53;1.80;;;1.30;;
18853;SDS011;9556;49.374;19.446;2023-03-14T01:39:20;2.07;;;1.30;;
18853;SDS011;9556;49.374;19.446;2023-03-14T01:41:49;1.97;;;1.33;;
18853;SDS011;9556;49.374;19.446;2023-03-14T01:44:16;2.17;;;1.40;;
18853;SDS011;9556;49.374;19.446;2023-03-14T01:46:43;1.83;;;1.30;;
18853;SDS011;9556;49.374;19.446;2023-03-14T01:49:16;1.63;;;1.27;;
18853;SDS011;9556;49.374;19.446;2023-03-14T01:51:46;1.70;;;1.30;;
18853;SDS011;9556;49.374;19.446;2023-03-14T01:54:16;3.00;;;1.50;;
18853;SDS011;9556;49.374;19.446;2023-03-14T01:56:44;1.83;;;1.30;;
18853;SDS011;9556;49.374;19.446;2023-03-14T01:59:14;2.03;;;1.37;;
18853;SDS011;9556;49.374;19.446;2023-03-14T02:01:42;1.77;;;1.40;;
18853;SDS011;9556;49.374;19.446;2023-03-14T02:04:10;3.13;;;1.20;;
18853;SDS011;9556;49.374;19.446;2023-03-14T02:06:40;2.10;;;1.50;;
18853;SDS011;9556;49.374;19.446;2023-03-14T02:09:09;2.83;;;1.40;;
18853;SDS011;9556;49.374;19.446;2023-03-14T02:11:36;1.30;;;1.20;;
18853;SDS011;9556;49.374;19.446;2023-03-14T02:14:03;1.88;;;1.33;;
18853;SDS011;9556;49.374;19.446;2023-03-14T02:16:32;2.17;;;1.45;;
18853;SDS011;9556;49.374;19.446;2023-03-14T02:19:01;1.70;;;1.20;;
18853;SDS011;9556;49.374;19.446;2023-03-14T02:21:31;1.20;;;0.90;;
18853;SDS011;9556;49.374;19.446;2023-03-14T02:24:04;1.60;;;1.20;;
18853;SDS011;9556;49.374;19.446;2023-03-14T02:26:36;2.40;;;1.13;;
18853;SDS011;9556;49.374;19.446;2023-03-14T02:29:06;2.10;;;1.30;;
18853;SDS011;9556;49.374;19.446;2023-03-14T02:31:33;1.83;;;1.37;;
18853;SDS011;9556;49.374;19.446;2023-03-14T02:34:00;1.60;;;1.20;;
18853;SDS011;9556;49.374;19.446;2023-03-14T02:36:28;1.60;;;1.30;;
18853;SDS011;9556;49.374;19.446;2023-03-14T02:38:58;2.07;;;1.17;;
18853;SDS011;9556;49.374;19.446;2023-03-14T02:41:28;1.70;;;1.30;;
18853;SDS011;9556;49.374;19.446;2023-03-14T02:43:55;3.70;;;1.20;;
18853;SDS011;9556;49.374;19.446;2023-03-14T02:46:24;1.60;;;1.20;;
18853;SDS011;9556;49.374;19.446;2023-03-14T02:48:52;2.43;;;1.30;;
18853;SDS011;9556;49.374;19.446;2023-03-14T02:51:21;2.90;;;1.43;;
18853;SDS011;9556;49.374;19.446;2023-03-14T02:53:48;1.83;;;1.40;;
18853;SDS011;9556;49.374;19.446;2023-03-14T02:56:15;1.60;;;1.30;;
18853;SDS011;9556;49.374;19.446;2023-03-14T02:58:42;4.33;;;1.37;;
18853;SDS011;9556;49.374;19.446;2023-03-14T03:01:09;2.63;;;1.30;;
18853;SDS011;9556;49.374;19.446;2023-03-14T03:03:38;2.43;;;1.20;;
18853;SDS011;9556;49.374;19.446;2023-03-14T03:06:05;2.37;;;1.40;;
18853;SDS011;9556;49.374;19.446;2023-03-14T03:08:32;1.80;;;1.30;;
18853;SDS011;9556;49.374;19.446;2023-03-14T03:11:00;2.33;;;1.40;;
18853;SDS011;9556;49.374;19.446;2023-03-14T03:13:27;1.77;;;1.27;;
18853;SDS011;9556;49.374;19.446;2023-03-14T03:15:54;2.10;;;1.30;;
18853;SDS011;9556;49.374;19.446;2023-03-14T03:18:22;1.47;;;1.30;;
18853;SDS011;9556;49.374;19.446;2023-03-14T03:20:50;2.05;;;1.30;;
18853;SDS011;9556;49.374;19.446;2023-03-14T03:23:17;1.80;;;1.13;;
18853;SDS011;9556;49.374;19.446;2023-03-14T03:25:47;2.17;;;1.30;;
18853;SDS011;9556;49.374;19.446;2023-03-14T03:28:16;2.00;;;1.40;;
18853;SDS011;9556;49.374;19.446;2023-03-14T03:30:43;2.23;;;1.30;;
18853;SDS011;9556;49.374;19.446;2023-03-14T03:33:11;2.10;;;1.30;;
18853;SDS011;9556;49.374;19.446;2023-03-14T03:35:41;1.10;;;0.93;;
18853;SDS011;9556;49.374;19.446;2023-03-14T03:38:11;1.47;;;1.20;;
18853;SDS011;9556;49.374;19.446;2023-03-14T03:40:38;1.77;;;1.10;;
18853;SDS011;9556;49.374;19.446;2023-03-14T03:43:05;1.20;;;1.03;;
18853;SDS011;9556;49.374;19.446;2023-03-14T03:45:32;1.43;;;1.10;;
18853;SDS011;9556;49.374;19.446;2023-03-14T03:47:59;1.13;;;0.93;;
18853;SDS011;9556;49.374;19.446;2023-03-14T03:50:26;1.20;;;1.10;;
18853;SDS011;9556;49.374;19.446;2023-03-14T03:52:53;2.13;;;1.20;;
18853;SDS011;9556;49.374;19.446;2023-03-14T03:55:22;1.30;;;1.00;;
18853;SDS011;9556;49.374;19.446;2023-03-14T03:57:50;2.57;;;1.40;;
18853;SDS011;9556;49.374;19.446;2023-03-14T04:00:18;1.53;;;1.20;;
18853;SDS011;9556;49.374;19.446;2023-03-14T04:02:45;1.60;;;1.10;;
18853;SDS011;9556;49.374;19.446;2023-03-14T04:05:12;1.30;;;1.10;;
18853;SDS011;9556;49.374;19.446;2023-03-14T04:07:39;1.90;;;1.20;;
18853;SDS011;9556;49.374;19.446;2023-03-14T04:10:07;1.67;;;1.10;;
18853;SDS011;9556;49.374;19.446;2023-03-14T04:12:36;1.80;;;1.20;;
18853;SDS011;9556;49.374;19.446;2023-03-14T04:15:03;2.07;;;1.40;;
18853;SDS011;9556;49.374;19.446;2023-03-14T04:17:31;2.10;;;1.20;;
18853;SDS011;9556;49.374;19.446;2023-03-14T04:19:58;1.80;;;1.50;;
18853;SDS011;9556;49.374;19.446;2023-03-14T04:22:25;1.73;;;1.20;;
18853;SDS011;9556;49.374;19.446;2023-03-14T04:24:52;1.83;;;1.30;;
18853;SDS011;9556;49.374;19.446;2023-03-14T04:27:19;1.27;;;1.00;;
18853;SDS011;9556;49.374;19.446;2023-03-14T04:29:48;3.07;;;1.10;;
18853;SDS011;9556;49.374;19.446;2023-03-14T04:32:15;1.23;;;1.10;;
18853;SDS011;9556;49.374;19.446;2023-03-14T04:34:42;1.90;;;1.40;;
18853;SDS011;9556;49.374;19.446;2023-03-14T04:37:09;1.23;;;1.10;;
18853;SDS011;9556;49.374;19.446;2023-03-14T04:39:36;2.10;;;1.43;;
18853;SDS011;9556;49.374;19.446;2023-03-14T04:42:03;1.40;;;1.00;;
18853;SDS011;9556;49.374;19.446;2023-03-14T04:44:31;2.10;;;1.40;;
18853;SDS011;9556;49.374;19.446;2023-03-14T04:46:59;1.45;;;1.17;;
18853;SDS011;9556;49.374;19.446;2023-03-14T04:49:26;1.85;;;1.20;;
18853;SDS011;9556;49.374;19.446;2023-03-14T04:51:53;1.77;;;1.23;;
18853;SDS011;9556;49.374;19.446;2023-03-14T04:54:21;1.67;;;1.20;;
18853;SDS011;9556;49.374;19.446;2023-03-14T04:56:48;2.67;;;1.20;;
18853;SDS011;9556;49.374;19.446;2023-03-14T04:59:15;1.43;;;1.10;;
18853;SDS011;9556;49.374;19.446;2023-03-14T05:01:42;2.77;;;1.30;;
18853;SDS011;9556;49.374;19.446;2023-03-14T05:04:11;1.90;;;1.13;;
18853;SDS011;9556;49.374;19.446;2023-03-14T05:06:38;4.50;;;1.63;;
18853;SDS011;9556;49.374;19.446;2023-03-14T05:09:07;2.05;;;1.52;;
18853;SDS011;9556;49.374;19.446;2023-03-14T05:11:34;1.63;;;1.40;;
18853;SDS011;9556;49.374;19.446;2023-03-14T05:14:01;2.13;;;1.50;;
18853;SDS011;9556;49.374;19.446;2023-03-14T05:16:29;2.13;;;1.50;;
18853;SDS011;9556;49.374;19.446;2023-03-14T05:18:56;2.80;;;1.60;;
18853;SDS011;9556;49.374;19.446;2023-03-14T05:21:24;2.30;;;1.50;;
18853;SDS011;9556;49.374;19.446;2023-03-14T05:23:51;10.77;;;2.10;;
18853;SDS011;9556;49.374;19.446;2023-03-14T05:26:19;3.50;;;1.60;;
18853;SDS011;9556;49.374;19.446;2023-03-14T05:28:46;4.97;;;1.60;;
18853;SDS011;9556;49.374;19.446;2023-03-14T05:31:13;3.17;;;1.67;;
18853;SDS011;9556;49.374;19.446;2023-03-14T05:33:40;4.93;;;1.50;;
18853;SDS011;9556;49.374;19.446;2023-03-14T05:36:08;2.27;;;1.50;;
18853;SDS011;9556;49.374;19.446;2023-03-14T05:38:36;2.27;;;1.20;;
18853;SDS011;9556;49.374;19.446;2023-03-14T05:41:04;8.47;;;1.50;;
18853;SDS011;9556;49.374;19.446;2023-03-14T05:43:31;4.07;;;1.73;;
18853;SDS011;9556;49.374;19.446;2023-03-14T05:45:58;2.40;;;1.50;;
18853;SDS011;9556;49.374;19.446;2023-03-14T05:48:25;2.00;;;1.40;;
18853;SDS011;9556;49.374;19.446;2023-03-14T05:50:55;3.17;;;1.58;;
18853;SDS011;9556;49.374;19.446;2023-03-14T05:53:22;2.70;;;1.40;;
18853;SDS011;9556;49.374;19.446;2023-03-14T05:55:52;3.57;;;1.50;;
18853;SDS011;9556;49.374;19.446;2023-03-14T05:58:19;5.03;;;1.30;;
18853;SDS011;9556;49.374;19.446;2023-03-14T06:00:46;3.00;;;1.70;;
18853;SDS011;9556;49.374;19.446;2023-03-14T06:03:14;7.00;;;1.77;;
18853;SDS011;9556;49.374;19.446;2023-03-14T06:05:41;3.70;;;1.50;;
18853;SDS011;9556;49.374;19.446;2023-03-14T06:08:08;2.50;;;1.33;;
18853;SDS011;9556;49.374;19.446;2023-03-14T06:10:35;5.43;;;1.80;;
18853;SDS011;9556;49.374;19.446;2023-03-14T06:13:04;4.63;;;1.80;;
18853;SDS011;9556;49.374;19.446;2023-03-14T06:15:31;4.20;;;1.70;;
18853;SDS011;9556;49.374;19.446;2023-03-14T06:18:00;4.97;;;1.77;;
18853;SDS011;9556;49.374;19.446;2023-03-14T06:20:27;5.20;;;1.67;;
18853;SDS011;9556;49.374;19.446;2023-03-14T06:22:54;7.03;;;2.00;;
18853;SDS011;9556;49.374;19.446;2023-03-14T06:25:22;5.77;;;1.57;;
18853;SDS011;9556;49.374;19.446;2023-03-14T06:27:49;4.30;;;2.00;;
18853;SDS011;9556;49.374;19.446;2023-03-14T06:30:17;6.83;;;1.73;;
18853;SDS011;9556;49.374;19.446;2023-03-14T06:32:45;5.93;;;1.83;;
18853;SDS011;9556;49.374;19.446;2023-03-14T06:35:12;3.67;;;1.90;;
18853;SDS011;9556;49.374;19.446;2023-03-14T06:37:39;4.60;;;1.87;;
18853;SDS011;9556;49.374;19.446;2023-03-14T06:40:07;5.07;;;1.90;;
18853;SDS011;9556;49.374;19.446;2023-03-14T06:42:34;4.27;;;1.83;;
18853;SDS011;9556;49.374;19.446;2023-03-14T06:45:01;4.73;;;1.80;;
18853;SDS011;9556;49.374;19.446;2023-03-14T06:47:30;3.83;;;1.53;;
18853;SDS011;9556;49.374;19.446;2023-03-14T06:49:57;4.67;;;1.73;;
18853;SDS011;9556;49.374;19.446;2023-03-14T06:52:24;6.13;;;1.90;;
18853;SDS011;9556;49.374;19.446;2023-03-14T06:54:51;3.50;;;1.87;;
18853;SDS011;9556;49.374;19.446;2023-03-14T06:57:18;2.57;;;1.70;;
18853;SDS011;9556;49.374;19.446;2023-03-14T06:59:46;3.33;;;1.80;;
18853;SDS011;9556;49.374;19.446;2023-03-14T07:02:13;4.90;;;2.10;;
18853;SDS011;9556;49.374;19.446;2023-03-14T07:04:42;2.77;;;1.60;;
18853;SDS011;9556;49.374;19.446;2023-03-14T07:07:09;2.83;;;1.80;;
18853;SDS011;9556;49.374;19.446;2023-03-14T07:09:36;3.03;;;1.83;;
18853;SDS011;9556;49.374;19.446;2023-03-14T07:12:03;4.33;;;1.80;;
18853;SDS011;9556;49.374;19.446;2023-03-14T07:14:30;3.90;;;1.77;;
18853;SDS011;9556;49.374;19.446;2023-03-14T07:16:58;6.10;;;1.97;;
18853;SDS011;9556;49.374;19.446;2023-03-14T07:19:25;3.43;;;1.90;;
18853;SDS011;9556;49.374;19.446;2023-03-14T07:21:53;2.93;;;1.63;;
18853;SDS011;9556;49.374;19.446;2023-03-14T07:24:21;5.73;;;1.80;;
18853;SDS011;9556;49.374;19.446;2023-03-14T07:26:48;3.23;;;1.67;;
18853;SDS011;9556;49.374;19.446;2023-03-14T07:29:15;4.73;;;1.70;;
18853;SDS011;9556;49.374;19.446;2023-03-14T07:31:42;2.57;;;1.70;;
18853;SDS011;9556;49.374;19.446;2023-03-14T07:34:09;13.17;;;1.83;;
18853;SDS011;9556;49.374;19.446;2023-03-14T07:36:36;3.53;;;1.60;;
18853;SDS011;9556;49.374;19.446;2023-03-14T07:39:05;2.10;;;1.52;;
18853;SDS011;9556;49.374;19.446;2023-03-14T07:41:32;3.00;;;1.60;;
18853;SDS011;9556;49.374;19.446;2023-03-14T07:44:00;2.57;;;1.80;;
18853;SDS011;9556;49.374;19.446;2023-03-14T07:46:27;2.70;;;1.70;;
18853;SDS011;9556;49.374;19.446;2023-03-14T07:48:54;1.93;;;1.40;;
18853;SDS011;9556;49.374;19.446;2023-03-14T07:51:21;3.37;;;1.80;;
18853;SDS011;9556;49.374;19.446;2023-03-14T07:53:48;2.83;;;1.90;;
18853;SDS011;9556;49.374;19.446;2023-03-14T07:56:17;2.00;;;1.43;;
18853;SDS011;9556;49.374;19.446;2023-03-14T07:58:44;3.15;;;1.77;;
18853;SDS011;9556;49.374;19.446;2023-03-14T08:01:11;4.27;;;1.77;;
18853;SDS011;9556;49.374;19.446;2023-03-14T08:03:38;3.00;;;1.67;;
18853;SDS011;9556;49.374;19.446;2023-03-14T08:06:06;3.87;;;1.83;;
18853;SDS011;9556;49.374;19.446;2023-03-14T08:08:33;3.03;;;1.73;;
18853;SDS011;9556;49.374;19.446;2023-03-14T08:11:03;3.03;;;1.73;;
18853;SDS011;9556;49.374;19.446;2023-03-14T08:13:32;2.97;;;1.57;;
18853;SDS011;9556;49.374;19.446;2023-03-14T08:15:59;2.00;;;1.47;;
18853;SDS011;9556;49.374;19.446;2023-03-14T08:18:26;3.77;;;1.80;;
18853;SDS011;9556;49.374;19.446;2023-03-14T08:20:53;3.33;;;1.50;;
18853;SDS011;9556;49.374;19.446;2023-03-14T08:23:20;3.10;;;1.50;;
18853;SDS011;9556;49.374;19.446;2023-03-14T08:25:48;5.87;;;1.70;;
18853;SDS011;9556;49.374;19.446;2023-03-14T08:28:16;2.83;;;1.43;;
18853;SDS011;9556;49.374;19.446;2023-03-14T08:30:44;2.80;;;1.70;;
18853;SDS011;9556;49.374;19.446;2023-03-14T08:33:11;1.80;;;1.47;;
18853;SDS011;9556;49.374;19.446;2023-03-14T08:35:38;2.50;;;1.47;;
18853;SDS011;9556;49.374;19.446;2023-03-14T08:38:06;3.23;;;1.70;;
18853;SDS011;9556;49.374;19.446;2023-03-14T08:40:33;4.37;;;1.97;;
18853;SDS011;9556;49.374;19.446;2023-03-14T08:43:00;3.80;;;1.53;;
18853;SDS011;9556;49.374;19.446;2023-03-14T08:45:27;3.60;;;1.57;;
18853;SDS011;9556;49.374;19.446;2023-03-14T08:47:55;5.30;;;1.60;;
18853;SDS011;9556;49.374;19.446;2023-03-14T08:50:24;2.60;;;1.60;;
18853;SDS011;9556;49.374;19.446;2023-03-14T08:52:51;4.10;;;1.57;;
18853;SDS011;9556;49.374;19.446;2023-03-14T08:55:19;3.90;;;1.70;;
18853;SDS011;9556;49.374;19.446;2023-03-14T08:57:46;5.05;;;1.70;;
18853;SDS011;9556;49.374;19.446;2023-03-14T09:00:13;2.70;;;1.77;;
18853;SDS011;9556;49.374;19.446;2023-03-14T09:02:42;2.37;;;1.57;;
18853;SDS011;9556;49.374;19.446;2023-03-14T09:05:10;2.50;;;1.67;;
18853;SDS011;9556;49.374;19.446;2023-03-14T09:07:38;3.77;;;1.80;;
18853;SDS011;9556;49.374;19.446;2023-03-14T09:10:06;2.63;;;1.80;;
18853;SDS011;9556;49.374;19.446;2023-03-14T09:12:33;2.83;;;1.90;;
18853;SDS011;9556;49.374;19.446;2023-03-14T09:15:00;5.87;;;1.63;;
18853;SDS011;9556;49.374;19.446;2023-03-14T09:17:27;3.27;;;1.60;;
18853;SDS011;9556;49.374;19.446;2023-03-14T09:19:54;2.60;;;1.80;;
18853;SDS011;9556;49.374;19.446;2023-03-14T09:22:23;2.40;;;1.70;;
18853;SDS011;9556;49.374;19.446;2023-03-14T09:24:51;3.72;;;1.52;;
18853;SDS011;9556;49.374;19.446;2023-03-14T09:27:18;2.78;;;1.80;;
18853;SDS011;9556;49.374;19.446;2023-03-14T09:29:45;2.70;;;1.70;;
18853;SDS011;9556;49.374;19.446;2023-03-14T09:32:12;1.83;;;1.33;;
18853;SDS011;9556;49.374;19.446;2023-03-14T09:34:39;5.93;;;1.87;;
18853;SDS011;9556;49.374;19.446;2023-03-14T09:37:06;3.77;;;1.90;;
18853;SDS011;9556;49.374;19.446;2023-03-14T09:39:35;2.67;;;1.70;;
18853;SDS011;9556;49.374;19.446;2023-03-14T09:42:02;2.53;;;1.67;;
18853;SDS011;9556;49.374;19.446;2023-03-14T09:44:31;3.80;;;1.80;;
18853;SDS011;9556;49.374;19.446;2023-03-14T09:47:00;2.50;;;1.70;;
18853;SDS011;9556;49.374;19.446;2023-03-14T09:49:28;2.67;;;1.60;;
18853;SDS011;9556;49.374;19.446;2023-03-14T09:51:57;2.03;;;1.63;;
18853;SDS011;9556;49.374;19.446;2023-03-14T09:54:29;3.15;;;1.60;;
18853;SDS011;9556;49.374;19.446;2023-03-14T09:56:58;2.57;;;1.77;;
18853;SDS011;9556;49.374;19.446;2023-03-14T09:59:25;3.30;;;1.80;;
18853;SDS011;9556;49.374;19.446;2023-03-14T10:01:53;3.60;;;1.83;;
18853;SDS011;9556;49.374;19.446;2023-03-14T10:04:22;4.30;;;2.00;;
18853;SDS011;9556;49.374;19.446;2023-03-14T10:06:49;5.03;;;2.07;;
18853;SDS011;9556;49.374;19.446;2023-03-14T10:09:17;3.60;;;2.07;;
18853;SDS011;9556;49.374;19.446;2023-03-14T10:11:50;7.00;;;2.47;;
18853;SDS011;9556;49.374;19.446;2023-03-14T10:14:27;6.97;;;2.30;;
18853;SDS011;9556;49.374;19.446;2023-03-14T10:16:55;8.27;;;2.80;;
18853;SDS011;9556;49.374;19.446;2023-03-14T10:19:30;6.60;;;2.93;;
18853;SDS011;9556;49.374;19.446;2023-03-14T10:22:00;6.70;;;2.87;;
18853;SDS011;9556;49.374;19.446;2023-03-14T10:24:28;11.00;;;2.50;;
18853;SDS011;9556;49.374;19.446;2023-03-14T10:26:57;6.53;;;2.80;;
18853;SDS011;9556;49.374;19.446;2023-03-14T10:29:28;6.97;;;2.90;;
18853;SDS011;9556;49.374;19.446;2023-03-14T10:31:58;3.80;;;2.20;;
18853;SDS011;9556;49.374;19.446;2023-03-14T10:34:27;6.63;;;2.37;;
18853;SDS011;9556;49.374;19.446;2023-03-14T10:36:56;5.23;;;2.50;;
18853;SDS011;9556;49.374;19.446;2023-03-14T10:39:32;5.60;;;2.57;;
18853;SDS011;9556;49.374;19.446;2023-03-14T10:42:04;4.57;;;2.23;;
18853;SDS011;9556;49.374;19.446;2023-03-14T10:44:33;6.70;;;2.70;;
18853;SDS011;9556;49.374;19.446;2023-03-14T10:47:01;6.37;;;2.73;;
18853;SDS011;9556;49.374;19.446;2023-03-14T10:49:30;4.27;;;2.40;;
18853;SDS011;9556;49.374;19.446;2023-03-14T10:52:00;7.07;;;2.33;;
18853;SDS011;9556;49.374;19.446;2023-03-14T10:54:29;3.90;;;2.05;;
18853;SDS011;9556;49.374;19.446;2023-03-14T10:56:56;4.97;;;2.27;;
18853;SDS011;9556;49.374;19.446;2023-03-14T10:59:23;3.50;;;2.10;;
18853;SDS011;9556;49.374;19.446;2023-03-14T11:01:54;4.53;;;2.03;;
18853;SDS011;9556;49.374;19.446;2023-03-14T11:04:38;4.33;;;2.40;;
18853;SDS011;9556;49.374;19.446;2023-03-14T11:07:11;4.30;;;2.20;;
18853;SDS011;9556;49.374;19.446;2023-03-14T11:09:42;4.00;;;1.90;;
18853;SDS011;9556;49.374;19.446;2023-03-14T11:12:16;5.97;;;2.30;;
18853;SDS011;9556;49.374;19.446;2023-03-14T11:14:46;3.30;;;2.00;;
18853;SDS011;9556;49.374;19.446;2023-03-14T11:17:18;3.97;;;2.03;;
18853;SDS011;9556;49.374;19.446;2023-03-14T11:19:53;3.00;;;2.00;;
18853;SDS011;9556;49.374;19.446;2023-03-14T11:22:27;3.80;;;2.22;;
18853;SDS011;9556;49.374;19.446;2023-03-14T11:24:58;3.43;;;2.20;;
18853;SDS011;9556;49.374;19.446;2023-03-14T11:27:30;6.40;;;2.30;;
18853;SDS011;9556;49.374;19.446;2023-03-14T11:30:02;3.33;;;1.90;;
18853;SDS011;9556;49.374;19.446;2023-03-14T11:32:37;2.83;;;1.87;;
18853;SDS011;9556;49.374;19.446;2023-03-14T11:35:08;3.28;;;2.10;;
18853;SDS011;9556;49.374;19.446;2023-03-14T11:37:43;8.82;;;2.17;;
18853;SDS011;9556;49.374;19.446;2023-03-14T11:40:14;3.30;;;1.87;;
18853;SDS011;9556;49.374;19.446;2023-03-14T11:42:42;11.93;;;2.37;;
18853;SDS011;9556;49.374;19.446;2023-03-14T11:45:12;7.30;;;2.17;;
18853;SDS011;9556;49.374;19.446;2023-03-14T11:47:43;3.57;;;2.10;;
18853;SDS011;9556;49.374;19.446;2023-03-14T11:50:12;6.70;;;1.90;;
18853;SDS011;9556;49.374;19.446;2023-03-14T11:52:41;8.80;;;2.03;;
18853;SDS011;9556;49.374;19.446;2023-03-14T11:55:10;6.80;;;2.03;;
18853;SDS011;9556;49.374;19.446;2023-03-14T11:57:39;3.60;;;2.00;;
18853;SDS011;9556;49.374;19.446;2023-03-14T12:00:12;3.33;;;1.95;;
18853;SDS011;9556;49.374;19.446;2023-03-14T12:02:43;4.03;;;1.85;;
18853;SDS011;9556;49.374;19.446;2023-03-14T12:08:03;4.22;;;2.00;;
18853;SDS011;9556;49.374;19.446;2023-03-14T12:10:37;5.07;;;2.00;;
18853;SDS011;9556;49.374;19.446;2023-03-14T12:13:06;3.07;;;1.90;;
18853;SDS011;9556;49.374;19.446;2023-03-14T12:15:35;6.07;;;2.10;;
18853;SDS011;9556;49.374;19.446;2023-03-14T12:18:12;3.78;;;1.70;;
18853;SDS011;9556;49.374;19.446;2023-03-14T12:20:50;6.60;;;2.30;;
18853;SDS011;9556;49.374;19.446;2023-03-14T12:23:17;6.68;;;2.08;;
18853;SDS011;9556;49.374;19.446;2023-03-14T12:25:45;2.83;;;1.77;;
18853;SDS011;9556;49.374;19.446;2023-03-14T12:28:19;4.00;;;1.97;;
18853;SDS011;9556;49.374;19.446;2023-03-14T12:30:46;3.50;;;1.90;;
18853;SDS011;9556;49.374;19.446;2023-03-14T12:33:22;3.53;;;1.93;;
18853;SDS011;9556;49.374;19.446;2023-03-14T12:35:57;3.43;;;2.00;;
18853;SDS011;9556;49.374;19.446;2023-03-14T12:38:26;3.40;;;1.90;;
18853;SDS011;9556;49.374;19.446;2023-03-14T12:40:57;3.63;;;2.00;;
18853;SDS011;9556;49.374;19.446;2023-03-14T12:43:26;4.00;;;1.80;;
18853;SDS011;9556;49.374;19.446;2023-03-14T12:46:14;5.83;;;2.00;;
18853;SDS011;9556;49.374;19.446;2023-03-14T12:48:43;3.67;;;1.90;;
18853;SDS011;9556;49.374;19.446;2023-03-14T12:51:14;4.23;;;2.00;;
18853;SDS011;9556;49.374;19.446;2023-03-14T12:53:57;4.53;;;1.80;;
18853;SDS011;9556;49.374;19.446;2023-03-14T12:56:28;4.13;;;1.67;;
18853;SDS011;9556;49.374;19.446;2023-03-14T13:01:47;3.47;;;2.00;;
18853;SDS011;9556;49.374;19.446;2023-03-14T13:04:16;3.73;;;1.87;;
18853;SDS011;9556;49.374;19.446;2023-03-14T13:06:47;5.22;;;2.28;;
18853;SDS011;9556;49.374;19.446;2023-03-14T13:12:02;3.47;;;1.90;;
18853;SDS011;9556;49.374;19.446;2023-03-14T13:14:30;3.03;;;1.85;;
18853;SDS011;9556;49.374;19.446;2023-03-14T13:16:59;3.85;;;1.80;;
18853;SDS011;9556;49.374;19.446;2023-03-14T13:19:28;6.43;;;2.00;;
18853;SDS011;9556;49.374;19.446;2023-03-14T13:21:56;4.87;;;1.70;;
18853;SDS011;9556;49.374;19.446;2023-03-14T13:24:24;2.77;;;1.80;;
18853;SDS011;9556;49.374;19.446;2023-03-14T13:26:51;3.47;;;1.90;;
18853;SDS011;9556;49.374;19.446;2023-03-14T13:29:20;2.37;;;1.60;;
18853;SDS011;9556;49.374;19.446;2023-03-14T13:31:49;3.53;;;1.90;;
18853;SDS011;9556;49.374;19.446;2023-03-14T13:34:16;2.73;;;1.63;;
18853;SDS011;9556;49.374;19.446;2023-03-14T13:36:45;4.27;;;1.90;;
18853;SDS011;9556;49.374;19.446;2023-03-14T13:39:16;3.40;;;1.90;;
18853;SDS011;9556;49.374;19.446;2023-03-14T13:41:44;4.33;;;2.07;;
18853;SDS011;9556;49.374;19.446;2023-03-14T13:44:13;3.63;;;2.00;;
18853;SDS011;9556;49.374;19.446;2023-03-14T13:46:42;4.43;;;1.83;;
18853;SDS011;9556;49.374;19.446;2023-03-14T13:49:10;3.07;;;2.00;;
18853;SDS011;9556;49.374;19.446;2023-03-14T13:51:38;3.73;;;2.10;;
18853;SDS011;9556;49.374;19.446;2023-03-14T13:54:13;4.32;;;2.15;;
18853;SDS011;9556;49.374;19.446;2023-03-14T13:56:41;3.00;;;1.93;;
18853;SDS011;9556;49.374;19.446;2023-03-14T13:59:20;4.70;;;2.30;;
18853;SDS011;9556;49.374;19.446;2023-03-14T14:01:48;4.53;;;2.10;;
18853;SDS011;9556;49.374;19.446;2023-03-14T14:04:16;3.17;;;1.97;;
18853;SDS011;9556;49.374;19.446;2023-03-14T14:06:47;3.35;;;2.20;;
18853;SDS011;9556;49.374;19.446;2023-03-14T14:09:16;5.05;;;2.80;;
18853;SDS011;9556;49.374;19.446;2023-03-14T14:11:45;3.67;;;2.25;;
18853;SDS011;9556;49.374;19.446;2023-03-14T14:14:14;3.28;;;2.20;;
18853;SDS011;9556;49.374;19.446;2023-03-14T14:16:42;4.68;;;2.83;;
18853;SDS011;9556;49.374;19.446;2023-03-14T14:19:10;3.53;;;2.40;;
18853;SDS011;9556;49.374;19.446;2023-03-14T14:21:38;4.33;;;2.50;;
18853;SDS011;9556;49.374;19.446;2023-03-14T14:24:06;5.03;;;2.30;;
18853;SDS011;9556;49.374;19.446;2023-03-14T14:26:36;5.33;;;2.67;;
18853;SDS011;9556;49.374;19.446;2023-03-14T14:29:06;4.22;;;2.53;;
18853;SDS011;9556;49.374;19.446;2023-03-14T14:31:33;3.67;;;2.15;;
18853;SDS011;9556;49.374;19.446;2023-03-14T14:34:01;6.37;;;2.70;;
18853;SDS011;9556;49.374;19.446;2023-03-14T14:36:29;5.20;;;2.30;;
18853;SDS011;9556;49.374;19.446;2023-03-14T14:38:58;11.33;;;3.17;;
18853;SDS011;9556;49.374;19.446;2023-03-14T14:41:26;8.77;;;3.03;;
18853;SDS011;9556;49.374;19.446;2023-03-14T14:43:55;5.20;;;3.20;;
18853;SDS011;9556;49.374;19.446;2023-03-14T14:46:23;7.73;;;3.30;;
18853;SDS011;9556;49.374;19.446;2023-03-14T14:48:54;6.13;;;3.43;;
18853;SDS011;9556;49.374;19.446;2023-03-14T14:51:22;6.97;;;3.17;;
18853;SDS011;9556;49.374;19.446;2023-03-14T14:53:59;6.70;;;3.07;;
18853;SDS011;9556;49.374;19.446;2023-03-14T14:56:26;5.45;;;3.35;;
18853;SDS011;9556;49.374;19.446;2023-03-14T14:58:57;8.70;;;3.53;;
18853;SDS011;9556;49.374;19.446;2023-03-14T15:01:26;7.40;;;3.40;;
18853;SDS011;9556;49.374;19.446;2023-03-14T15:03:58;9.23;;;3.43;;